Terminal Aerodrome Forecast
Issued by NWS Wilmington, OH

Current Version | Previous Version | Text Only | Print | Product List | Glossary Off
Versions: 1 2 3 4 5 6 7 8 9 10 11 12 13 14 15 16 17 18 19 20 21 22 23

000
FTUS41 KILN 202233 AAA
TAFDAY
TAF AMD
KDAY 202233Z 2023/2118 24008KT P6SM BKN050
     FM210300 24007KT P6SM VCSH BKN100
     FM211200 30004KT P6SM BKN070
     FM211500 31005KT P6SM BKN035=

USA.gov is the U.S. government's official web portal to all federal, state and local government web resources and services.